Flight Track Log - Related Links

Times and Time Zones

All times are in EDT time to prevent confusion due to time zone crossing. See the JST963 flight status page for this flight to view local times or setup timezone preferences in your user account.

Time Position Orientation Groundspeed Altitude Reporting Facility
EDT Latitude Longitude Course Direction KTS MPH feet Rate Location/Type
Tue 04:36:38 PM -16.9017 145.7789 37° Northeast 179 206 1,900  Level Aus ATC (RADAR)
Tue 04:37:53 PM -16.8528 145.8176 37° Northeast 191 220 3,600 1,385 Climbing Aus ATC (RADAR)
Tue 04:38:48 PM -16.8461 145.8745 83° East 255 293 4,900 2,421 Climbing Aus ATC (RADAR)
Tue 04:39:47 PM -16.9186 145.8749 180° South 265 305 8,200 2,791 Climbing Aus ATC (RADAR)
Tue 04:40:57 PM -17.0013 145.8407 202° Southwest 279 321 10,900 1,956 Climbing Aus ATC (RADAR)
Tue 04:42:02 PM -17.0933 145.8028 201° Southwest 330 380 12,600 1,680 Climbing Aus ATC (RADAR)
Tue 04:43:02 PM -17.1835 145.7659 201° Southwest 347 399 14,400 1,968 Climbing Aus ATC (RADAR)
Tue 04:44:07 PM -17.2858 145.7234 202° Southwest 360 414 16,700 1,857 Climbing Aus ATC (RADAR)
Tue 04:45:08 PM -17.3806 145.6839 202° Southwest 368 423 18,300 1,488 Climbing Aus ATC (RADAR)
Tue 04:46:12 PM -17.4900 145.6388 201° Southwest 387 445 19,800 1,381 Climbing Aus ATC (RADAR)
Tue 04:47:27 PM -17.6193 145.5845 202° Southwest 400 460 21,500 1,366 Climbing Aus ATC (RADAR)
Tue 04:48:37 PM -17.7441 145.5324 202° Southwest 411 473 23,100 1,200 Climbing Aus ATC (RADAR)
Tue 04:49:42 PM -17.8572 145.4848 202° Southwest 408 470 24,200 844 Climbing Aus ATC (RADAR)
Tue 04:50:52 PM -17.9843 145.4321 202° Southwest 422 486 25,000 711 Climbing Aus ATC (RADAR)
Tue 04:51:57 PM -18.1059 145.3806 202° Southwest 434 499 25,800 880 Climbing Aus ATC (RADAR)
Tue 04:53:22 PM -18.2670 145.3127 202° Southwest 438 504 27,200 930 Climbing Aus ATC (RADAR)
Tue 04:54:06 PM -18.3526 145.2767 202° Southwest 439 505 27,800 873 Climbing Aus ATC (RADAR)
Tue 04:55:12 PM -18.4761 145.2244 202° Southwest 438 504 28,800 844 Climbing Aus ATC (RADAR)
Tue 04:56:21 PM -18.6091 145.1684 202° Southwest 438 504 29,700 756 Climbing Aus ATC (RADAR)
Tue 04:57:27 PM -18.7335 145.1156 202° Southwest 443 510 30,500 916 Climbing Aus ATC (RADAR)
Tue 04:58:32 PM -18.8567 145.0634 202° Southwest 437 503 31,700 871 Climbing Aus ATC (RADAR)
Tue 04:59:31 PM -18.9687 145.0160 202° Southwest 433 498 32,300 781 Climbing Aus ATC (RADAR)
Tue 05:01:21 PM -19.1736 144.9285 202° Southwest 428 493 33,900 635 Climbing Aus ATC (RADAR)
Tue 05:02:21 PM -19.2843 144.8820 202° Southwest 423 487 34,100 89 Climbing Aus ATC (RADAR)
Tue 05:03:36 PM -19.4226 144.8223 202° Southwest 431 496 34,100  Level Aus ATC (RADAR)
Tue 05:04:26 PM -19.5160 144.7832 202° Southwest 430 495 34,100  Level Aus ATC (RADAR)
Tue 05:05:15 PM -19.6091 144.7429 202° Southwest 431 496 34,100  Level Aus ATC (RADAR)
Tue 05:06:35 PM -19.7573 144.6793 202° Southwest 426 490 34,100  Level Aus ATC (RADAR)
Tue 05:07:30 PM -19.8591 144.6360 202° Southwest 428 493 34,100  Level Aus ATC (RADAR)
Tue 05:08:10 PM -19.9320 144.6044 202° Southwest 422 486 34,100  Level Aus ATC (RADAR)
Tue 05:08:45 PM -19.9959 144.5770 202° Southwest 422 486 34,100  Level Aus ATC (RADAR)
Tue 05:09:20 PM -20.0598 144.5493 202° Southwest 422 486 34,100  Level Aus ATC (RADAR)
Tue 05:09:50 PM -20.1156 144.5260 202° Southwest 428 493 34,100  Level Aus ATC (RADAR)
Tue 05:10:25 PM -20.1787 144.4986 202° Southwest 420 483 34,100  Level Aus ATC (RADAR)
Tue 05:11:30 PM -20.2969 144.4479 202° Southwest 421 484 34,100  Level Aus ATC (RADAR)
Tue 05:12:30 PM -20.4051 144.4008 202° Southwest 417 480 34,100  Level Aus ATC (RADAR)
Tue 05:13:10 PM -20.4774 144.3694 202° Southwest 417 480 34,100  Level Aus ATC (RADAR)
Tue 05:13:45 PM -20.5404 144.3421 202° Southwest 416 479 34,100  Level Aus ATC (RADAR)
Tue 05:14:20 PM -20.6031 144.3152 202° Southwest 414 476 34,100  Level Aus ATC (RADAR)
Tue 05:14:55 PM -20.6665 144.2885 202° Southwest 417 480 34,100  Level Aus ATC (RADAR)
Tue 05:15:30 PM -20.7280 144.2608 203° Southwest 410 472 34,100  Level Aus ATC (RADAR)
Tue 05:17:04 PM -20.9052 144.2043 197° South 425 489 34,100  Level Aus ATC (RADAR)
Tue 05:17:54 PM -21.0014 144.1830 192° South 422 486 34,100  Level Aus ATC (RADAR)
Tue 05:18:34 PM -21.0771 144.1650 193° South 418 481 34,100  Level Aus ATC (RADAR)
Tue 05:19:14 PM -21.1539 144.1481 192° South 422 486 34,100  Level Aus ATC (RADAR)
Tue 05:19:49 PM -21.2207 144.1337 191° South 420 483 34,100  Level Aus ATC (RADAR)
Tue 05:20:19 PM -21.2780 144.1210 192° South 420 483 34,100  Level Aus ATC (RADAR)
Tue 05:22:14 PM -21.4968 144.0723 192° South 420 483 34,100  Level Aus ATC (RADAR)
Tue 05:23:04 PM -21.5922 144.0513 192° South 419 482 34,100  Level Aus ATC (RADAR)
Tue 05:23:34 PM -21.6497 144.0383 192° South 422 486 34,100  Level Aus ATC (RADAR)
Tue 05:24:09 PM -21.7164 144.0233 192° South 421 484 34,100  Level Aus ATC (RADAR)
Tue 05:24:43 PM -21.7824 144.0073 193° South 418 481 34,100  Level Aus ATC (RADAR)
Tue 05:25:18 PM -21.8474 143.9901 194° South 414 476 34,100 48 Level Aus ATC (RADAR)
Tue 05:26:48 PM -22.0226 143.9520 191° South 427 491 34,200 48 Climbing Aus ATC (RADAR)
Tue 05:27:23 PM -22.0904 143.9361 192° South 429 494 34,200  Level Aus ATC (RADAR)
Tue 05:28:13 PM -22.1867 143.9115 193° South 428 493 34,200  Level Aus ATC (RADAR)
Tue 05:28:58 PM -22.2770 143.8933 191° South 435 501 34,200  Level Aus ATC (RADAR)
Tue 05:29:28 PM -22.3372 143.8804 191° South 439 505 34,200  Level Aus ATC (RADAR)
Tue 05:30:03 PM -22.4066 143.8658 191° South 436 502 34,200  Level Aus ATC (RADAR)
Tue 05:30:38 PM -22.4748 143.8499 192° South 433 498 34,200  Level Aus ATC (RADAR)
Tue 05:31:43 PM -22.5996 143.8199 192° South 425 489 34,200  Level Aus ATC (RADAR)
Tue 05:32:18 PM -22.6677 143.8054 191° South 427 491 34,200  Level Aus ATC (RADAR)
Tue 05:32:48 PM -22.7260 143.7936 191° South 425 489 34,200  Level Aus ATC (RADAR)
Tue 05:35:53 PM -23.1096 143.7066 201° Southwest 34,000  Descending Aus ATC (Calculated)
Tue 05:37:00 PM -23.2250 143.6803 192° South  Level FlightAware Approximate
Tue 05:38:00 PM -23.3284 143.6567 192° South  Level FlightAware Approximate
Tue 05:39:00 PM -23.4317 143.6331 192° South  Level FlightAware Approximate
Tue 05:40:00 PM -23.5351 143.6095 192° South  Level FlightAware Approximate
Tue 05:41:00 PM -23.6384 143.5858 192° South  Level FlightAware Approximate
Tue 05:42:00 PM -23.7418 143.5621 192° South  Level FlightAware Approximate
Tue 05:43:00 PM -23.8451 143.5383 192° South  Level FlightAware Approximate
Tue 05:44:00 PM -23.9485 143.5145 192° South  Level FlightAware Approximate
Tue 05:45:00 PM -24.0518 143.4907 192° South  Level FlightAware Approximate
Tue 05:46:00 PM -24.1551 143.4668 192° South  Level FlightAware Approximate
Tue 05:46:00 PM -24.1195 143.2733 201° Southwest 34,000  Level Aus ATC (Calculated)
Tue 05:47:00 PM -24.2585 143.4429 192° South  Level FlightAware Approximate
Tue 05:48:00 PM -24.2617 143.4446 132° Southeast  Level FlightAware Approximate
Tue 05:49:00 PM -24.1906 143.3589 312° West  Level FlightAware Approximate
Tue 05:49:00 PM -24.4286 143.1393 201° Southwest 34,000  Level Aus ATC (Calculated)
Tue 05:49:40 PM -24.4752 143.1190 201° Southwest 34,000 Level Aus ATC (Calculated)
Tue 05:50:00 PM -24.5280 143.1001 205° Southwest  Level Estimated
Tue 05:51:00 PM -24.6061 143.0620 202° Southwest  Level FlightAware Approximate
Tue 05:52:00 PM -24.7043 143.0191 202° Southwest  Level FlightAware Approximate
Tue 05:53:00 PM -24.8024 142.9762 202° Southwest  Level FlightAware Approximate
Tue 05:54:00 PM -24.9006 142.9332 202° Southwest  Level FlightAware Approximate
Tue 05:54:58 PM -25.0262 142.8781 201° Southwest 34,000  Level Aus ATC (Calculated)
Tue 05:55:00 PM -24.9987 142.8902 202° Southwest  Level FlightAware Approximate
Tue 05:56:00 PM -25.1276 142.8335 202° Southwest  Level FlightAware Approximate
Tue 05:57:00 PM -25.2256 142.7903 202° Southwest  Level FlightAware Approximate
Tue 05:57:06 PM -25.2499 142.7796 201° Southwest 34,000  Level Aus ATC (Calculated)
Tue 05:59:00 PM -25.4362 142.6973 202° Southwest  Level FlightAware Approximate
Tue 06:00:00 PM -25.5343 142.6538 202° Southwest  Level FlightAware Approximate
Tue 06:01:00 PM -25.6323 142.6103 202° Southwest  Level FlightAware Approximate
Tue 06:02:00 PM -25.7303 142.5668 202° Southwest  Level FlightAware Approximate
Tue 06:03:00 PM -25.8284 142.5231 202° Southwest  Level FlightAware Approximate
Tue 06:04:00 PM -25.9264 142.4794 202° Southwest  Level FlightAware Approximate
Tue 06:05:00 PM -26.0243 142.4356 202° Southwest  Level FlightAware Approximate
Tue 06:06:00 PM -26.1223 142.3917 202° Southwest  Level FlightAware Approximate
Tue 06:07:00 PM -26.2203 142.3478 202° Southwest  Level FlightAware Approximate
Tue 06:08:00 PM -26.3182 142.3038 202° Southwest  Level FlightAware Approximate
Tue 06:08:58 PM -26.3975 142.2681 201° Southwest 34,000  Level Aus ATC (Calculated)
Tue 06:09:00 PM -26.4162 142.2597 202° Southwest  Level FlightAware Approximate
Tue 06:09:58 PM -26.5239 142.2111 201° Southwest 34,000  Level Aus ATC (Calculated)
Tue 06:10:00 PM -26.4987 142.2225 202° Southwest  Level FlightAware Approximate
Tue 06:11:00 PM -26.6251 142.1653 202° Southwest  Level FlightAware Approximate
Tue 06:12:00 PM -26.7230 142.1210 202° Southwest  Level FlightAware Approximate
Tue 06:13:00 PM -26.8209 142.0766 202° Southwest  Level FlightAware Approximate
Tue 06:14:00 PM -26.9187 142.0321 202° Southwest  Level FlightAware Approximate
Tue 06:15:00 PM -27.0166 141.9876 202° Southwest  Level FlightAware Approximate
Tue 06:16:00 PM -27.1144 141.9429 202° Southwest  Level FlightAware Approximate
Tue 06:17:00 PM -27.2122 141.8982 202° Southwest  Level FlightAware Approximate
Tue 06:18:00 PM -27.3101 141.8534 202° Southwest  Level FlightAware Approximate
Tue 06:19:00 PM -27.4079 141.8085 202° Southwest  Level FlightAware Approximate
Tue 06:19:00 PM -27.4083 141.8083 200° South 12,400  Level Aus ATC (Calculated)
Tue 06:20:00 PM -27.3027 141.8083 North  Level FlightAware Approximate
Tue 06:21:00 PM -27.4083 141.8083 180° South  Level FlightAware Approximate
Tue 06:21:49 PM -27.6749 141.6954 201° Southwest 12,400  Level Aus ATC (Calculated)
Tue 06:22:00 PM -27.4873 141.8874 138° Southeast  Level FlightAware Approximate
Tue 06:23:00 PM -27.7908 141.6488 201° Southwest  Level Estimated
Tue 06:23:36 PM -27.8348 141.6273 201° Southwest 12,400  Level Aus ATC (Calculated)
Tue 06:24:36 PM -27.9414 141.5819 201° Southwest 12,400 633 Level Aus ATC (Calculated)
Tue 06:25:00 PM -27.9717 141.5690 201° Southwest  Level FlightAware Approximate
Tue 06:25:12 PM -27.9947 141.5591 201° Southwest 12,400  Level Aus ATC (Calculated)
Tue 06:26:25 PM -28.1546 141.4907 201° Southwest 12,400 664 Level Aus ATC (Calculated)
Tue 06:27:00 PM -28.1706 141.4838 201° Southwest  Level FlightAware Approximate
Tue 06:28:00 PM -28.3092 141.4242 201° Southwest  Level FlightAware Approximate
Tue 06:29:00 PM -28.4069 141.3822 201° Southwest  Level FlightAware Approximate
Tue 06:30:00 PM -28.5046 141.3400 201° Southwest  Level FlightAware Approximate
Tue 06:31:00 PM -28.6023 141.2978 201° Southwest  Level FlightAware Approximate
Tue 06:32:00 PM -28.6999 141.2555 201° Southwest  Level FlightAware Approximate
Tue 06:32:31 PM -28.7403 141.2380 201° Southwest 12,400  Level Aus ATC (Calculated)
Tue 06:32:40 PM -28.7403 141.2380 201° Southwest 12,400 854 Level Aus ATC (Calculated)
Tue 06:34:00 PM -28.8704 141.1815 201° Southwest  Level FlightAware Approximate
Tue 06:35:00 PM -28.9681 141.1389 201° Southwest  Level FlightAware Approximate
Tue 06:36:00 PM -29.0657 141.0963 201° Southwest  Level FlightAware Approximate
Tue 06:37:00 PM -29.1632 141.0536 201° Southwest  Level FlightAware Approximate
Tue 06:38:00 PM -29.2608 141.0109 201° Southwest  Level FlightAware Approximate
Tue 06:39:00 PM -29.3584 140.9680 201° Southwest  Level FlightAware Approximate
Tue 06:40:00 PM -29.4559 140.9251 201° Southwest  Level FlightAware Approximate
Tue 06:40:43 PM -29.5381 140.8889 201° Southwest 12,400  Level Aus ATC (Calculated)
Tue 06:42:00 PM -29.6632 140.8336 201° Southwest  Level FlightAware Approximate
Tue 06:43:00 PM -29.7607 140.7904 201° Southwest  Level FlightAware Approximate
Tue 06:44:00 PM -29.8582 140.7472 201° Southwest  Level FlightAware Approximate
Tue 06:45:00 PM -29.9557 140.7038 201° Southwest  Level FlightAware Approximate
Tue 06:46:00 PM -30.0532 140.6604 201° Southwest  Level FlightAware Approximate
Tue 06:46:37 PM -30.1225 140.6294 201° Southwest 12,400  Level Aus ATC (Calculated)
Tue 06:47:00 PM -30.1506 140.6169 201° Southwest  Level FlightAware Approximate
Tue 06:48:00 PM -30.2573 140.5691 201° Southwest  Level FlightAware Approximate
Tue 06:49:00 PM -30.3547 140.5254 201° Southwest  Level FlightAware Approximate
Tue 06:50:00 PM -30.4521 140.4816 201° Southwest  Level FlightAware Approximate
Tue 06:51:00 PM -30.5495 140.4377 201° Southwest  Level FlightAware Approximate
Tue 06:51:00 PM -30.5472 140.4388 201° Southwest 12,400  Level Aus ATC (Calculated)
Tue 06:51:57 PM -30.6002 140.4148 201° Southwest 12,400 3,100 Level Aus ATC (Calculated)
Tue 06:52:00 PM -30.6445 140.3948 201° Southwest  Level FlightAware Approximate
Tue 06:53:00 PM -30.7024 140.3686 201° Southwest  Level FlightAware Approximate
Tue 06:54:00 PM -30.7998 140.3245 201° Southwest  Level FlightAware Approximate
Tue 06:55:00 PM -30.8971 140.2803 201° Southwest  Level FlightAware Approximate
Tue 06:56:00 PM -30.9944 140.2360 201° Southwest  Level FlightAware Approximate
Tue 06:57:00 PM -31.0917 140.1917 201° Southwest  Level FlightAware Approximate
Tue 06:57:40 PM -31.1835 140.1497 28° Northeast 12,400  Level Aus ATC (Calculated)
Tue 06:58:02 PM -31.1450 140.1739 201° Southwest 397 457 34,200 15,951 Climbing Aus ATC (RADAR)
Tue 06:59:02 PM -31.2459 140.1219 204° Southwest 396 456 34,200  Level Aus ATC (RADAR)
Tue 06:59:47 PM -31.3224 140.0847 203° Southwest 397 457 34,200  Level Aus ATC (RADAR)
Tue 07:00:27 PM -31.3906 140.0522 202° Southwest 397 457 34,200  Level Aus ATC (RADAR)
Tue 07:01:12 PM -31.4691 140.0199 199° South 400 460 34,200  Level Aus ATC (RADAR)
Tue 07:02:37 PM -31.6154 139.9516 202° Southwest 401 461 34,200  Level Aus ATC (RADAR)
Tue 07:03:26 PM -31.7016 139.9097 202° Southwest 404 465 34,200  Level Aus ATC (RADAR)
Tue 07:04:01 PM -31.7625 139.8829 201° Southwest 402 463 34,200  Level Aus ATC (RADAR)
Tue 07:04:51 PM -31.8498 139.8441 201° Southwest 402 463 34,200  Level Aus ATC (RADAR)
Tue 07:05:26 PM -31.9105 139.8160 201° Southwest 405 466 34,200  Level Aus ATC (RADAR)
Tue 07:06:11 PM -31.9875 139.7791 202° Southwest 399 459 34,200  Level Aus ATC (RADAR)
Tue 07:07:11 PM -32.0904 139.7302 202° Southwest 401 461 34,200  Level Aus ATC (RADAR)
Tue 07:08:26 PM -32.2195 139.6706 201° Southwest 400 460 34,200  Level Aus ATC (RADAR)
Tue 07:09:26 PM -32.3228 139.6233 201° Southwest 399 459 34,200  Level Aus ATC (RADAR)
Tue 07:10:11 PM -32.4003 139.5872 201° Southwest 400 460 34,200  Level Aus ATC (RADAR)
Tue 07:10:46 PM -32.4602 139.5571 203° Southwest 403 464 34,200  Level Aus ATC (RADAR)
Tue 07:11:36 PM -32.5462 139.5178 201° Southwest 401 461 34,200  Level Aus ATC (RADAR)
Tue 07:13:10 PM -32.7102 139.4410 201° Southwest 405 466 34,200  Level Aus ATC (RADAR)
Tue 07:14:10 PM -32.8142 139.3904 202° Southwest 406 467 34,200 -57 Level Aus ATC (RADAR)
Tue 07:14:55 PM -32.8924 139.3530 202° Southwest 406 467 34,100  Descending Aus ATC (RADAR)
Tue 07:15:30 PM -32.9532 139.3242 202° Southwest 404 465 34,200 86 Climbing Aus ATC (RADAR)
Tue 07:16:05 PM -33.0132 139.2950 202° Southwest 400 460 34,200  Level Aus ATC (RADAR)
Tue 07:16:45 PM -33.0823 139.2620 202° Southwest 403 464 34,200 -80 Level Aus ATC (RADAR)
Tue 07:17:20 PM -33.1422 139.2334 202° Southwest 400 460 34,100 -57 Descending Aus ATC (RADAR)
Tue 07:18:30 PM -33.2610 139.1765 202° Southwest 396 456 34,100  Level Aus ATC (RADAR)
Tue 07:19:30 PM -33.3624 139.1274 202° Southwest 397 457 34,100 55 Level Aus ATC (RADAR)
Tue 07:20:19 PM -33.4468 139.0867 202° Southwest 392 451 34,200 71 Climbing Aus ATC (RADAR)
Tue 07:20:54 PM -33.5058 139.0573 203° Southwest 395 455 34,200 -1,000 Level Aus ATC (RADAR)
Tue 07:21:49 PM -33.5992 139.0137 201° Southwest 397 457 32,700 -2,772 Descending Aus ATC (RADAR)
Tue 07:23:19 PM -33.7523 138.9391 202° Southwest 398 458 27,500 -3,343 Descending Aus ATC (RADAR)
Tue 07:24:09 PM -33.8372 138.8977 202° Southwest 397 457 24,900 -2,965 Descending Aus ATC (RADAR)
Tue 07:24:44 PM -33.8965 138.8684 202° Southwest 396 456 23,300 -2,733 Descending Aus ATC (RADAR)
Tue 07:25:39 PM -33.9888 138.8238 202° Southwest 391 450 20,800 -2,667 Descending Aus ATC (RADAR)
Tue 07:26:14 PM -34.0463 138.7951 202° Southwest 386 444 19,300 -2,612 Descending Aus ATC (RADAR)
Tue 07:27:04 PM -34.1285 138.7547 202° Southwest 384 442 17,100 -2,682 Descending Aus ATC (RADAR)
Tue 07:27:39 PM -34.1851 138.7273 202° Southwest 378 435 15,500 -2,618 Descending Aus ATC (RADAR)
Tue 07:28:54 PM -34.3099 138.6925 193° South 366 421 12,300 -2,533 Descending Aus ATC (RADAR)
Tue 07:29:54 PM -34.4056 138.6671 192° South 349 402 9,800 -2,422 Descending Aus ATC (RADAR)
Tue 07:30:43 PM -34.4823 138.6471 192° South 338 389 7,900 -2,429 Descending Aus ATC (RADAR)
Tue 07:31:18 PM -34.5348 138.6334 192° South 331 381 6,400 -1,500 Descending Aus ATC (RADAR)
Tue 07:32:03 PM -34.5975 138.6172 192° South 302 348 5,900 -857 Descending Aus ATC (RADAR)
Tue 07:33:38 PM -34.7017 138.6720 157° South 277 319 4,400 -863 Descending Aus ATC (RADAR)
Tue 07:34:43 PM -34.7639 138.7342 141° Southeast 259 298 3,600 -709 Descending Aus ATC (RADAR)
Tue 07:35:28 PM -34.8059 138.7351 179° South 215 247 3,100 -304 Descending Aus ATC (RADAR)
Tue 07:36:02 PM -34.8272 138.7084 226° Southwest 192 221 3,200 -212 Climbing Aus ATC (RADAR)
Tue 07:36:53 PM -34.8541 138.6692 230° Southwest 178 205 2,800 -720 Descending Aus ATC (RADAR)
Tue 07:37:42 PM -34.8796 138.6319 230° Southwest 171 197 2,000 -871 Descending Aus ATC (RADAR)
Tue 07:38:57 PM -34.9114 138.5860 230° Southwest 135 155 1,000 -800 Descending Aus ATC (RADAR)
Tue 07:39:57 PM -34.9357 138.5504 230° Southwest 137 158 200 -800 Descending Aus ATC (RADAR)

Login

Don't have an account? Register now (free) for customized features, flight alerts, and more!